Parma — V2OZ9 — position and weather

sailwx.info

Track history (hours):
 
Tides and Currents Weather Stations Pressure Air Temp Water Temp Dewpoint Dewpoint Depression Visibility Wind Speed Wind Dir Waves Ship Positions

Parma

Last reported at 2016-Feb-06 21:33 UTC. Time now 2016-Feb-10 02:39 UTC.
Position N 35°54' W 005°18'.

MMSI: 279073176.

Date/timePositionNaut miles runAvg speedWind from/ knotsBaromVisibWave heightAir tempDewpointWater temp
2016-Feb-06 21:33N 35°54' W 005°18'1 0.9
2016-Feb-06 20:33N 35°54' W 005°19'0 0.1
2016-Feb-06 19:33N 35°54' W 005°19'0 0.1
2016-Feb-06 18:33N 35°54' W 005°19'0 0.0
2016-Feb-06 17:33N 35°54' W 005°19'1 0.6
2016-Feb-06 16:33N 35°54' W 005°19'3 2.5
2016-Feb-06 15:33N 35°56' W 005°21'1110.5
2016-Feb-06 14:33N 35°55' W 005°34'121 9.8
2016-Feb-06 02:17N 36°18' W 008°01'7 8.9
2016-Feb-06 01:32N 36°20' W 008°09'10 9.6
2016-Feb-06 00:32N 36°22' W 008°20'10 9.5
2016-Feb-05 23:32N 36°24' W 008°32'10 9.7
2016-Feb-05 22:32N 36°27' W 008°43'9 9.0
2016-Feb-05 21:29N 36°29' W 008°55'8 8.9
2016-Feb-05 20:32N 36°31' W 009°05'10 9.6
2016-Feb-05 19:32N 36°34' W 009°16'9 9.0
2016-Feb-05 18:32N 36°40' W 009°24'9 8.5
2016-Feb-05 17:29N 36°47' W 009°32'8 8.5
2016-Feb-05 16:32N 36°54' W 009°35'52 8.7
2016-Feb-05 10:32N 37°46' W 009°49'1110.1
2016-Feb-05 09:28N 37°56' W 009°52'9 9.0
2016-Feb-05 08:31N 38°04' W 009°54'10 9.6
2016-Feb-05 07:28N 38°14' W 009°57'10 9.7
2016-Feb-05 06:25N 38°24' W 010°00'910.1
2016-Feb-05 05:31N 38°33' W 010°03'8 8.5
2016-Feb-05 04:33N 38°41' W 010°06'1010.0
2016-Feb-05 03:31N 38°51' W 010°06'9 9.1
2016-Feb-05 02:33N 39°00' W 010°06'10 9.5
2016-Feb-05 01:31N 39°10' W 010°06'9 9.2
2016-Feb-05 00:33N 39°19' W 010°06'1010.2
2016-Feb-04 23:33N 39°29' W 010°06'10 9.4
2016-Feb-04 22:31N 39°39' W 010°06'10 9.2
2016-Feb-04 21:28N 39°48' W 010°06'9 9.6
2016-Feb-04 20:31N 39°58' W 010°06'10 9.9
2016-Feb-04 19:31N 40°07' W 010°06'20 9.7
2016-Feb-04 17:28N 40°27' W 010°06'1010.0
2016-Feb-04 16:31N 40°37' W 010°06'1111.1
2016-Feb-04 15:31N 40°48' W 010°06'10 9.9
2016-Feb-04 14:28N 40°58' W 010°06'9 9.2
2016-Feb-04 13:31N 41°07' W 010°06'19 9.6
2016-Feb-04 11:31N 41°26' W 010°06'10 9.3
2016-Feb-04 10:28N 41°36' W 010°06'9 9.1
2016-Feb-04 09:31N 41°45' W 010°07'10 9.4
2016-Feb-04 08:28N 41°54' W 010°07'  
2016-Feb-01 11:12N 49°54' W 003°08'141 6.2
2016-Jan-31 12:25N 50°36' E 000°22'6 7.4
2016-Jan-31 11:33N 50°38' E 000°32'9 8.4
2016-Jan-31 10:32N 50°43' E 000°43'2210.0
2016-Jan-31 08:21N 50°56' E 001°11'8 9.6
2016-Jan-31 07:33N 51°01' E 001°20'9 8.8
2016-Jan-31 06:33N 51°06' E 001°31'8 7.8
2016-Jan-31 05:33N 51°11' E 001°41'7 7.3
2016-Jan-31 04:33N 51°17' E 001°48'8 7.9
2016-Jan-31 03:33N 51°23' E 001°56'9 8.6
2016-Jan-31 02:33N 51°30' E 002°04'9 9.1
2016-Jan-31 01:33N 51°37' E 002°13'9 9.3
2016-Jan-31 00:33N 51°44' E 002°23'144 6.6
2016-Jan-30 02:33N 53°33' E 004°60'5 5.5
2016-Jan-30 01:33N 53°35' E 005°08'5 5.5
2016-Jan-30 00:33N 53°36' E 005°17'5 5.1
2016-Jan-29 23:33N 53°38' E 005°25'5 5.2
2016-Jan-29 22:33N 53°40' E 005°33'4 4.1
2016-Jan-29 21:33N 53°41' E 005°40'3 3.0
2016-Jan-29 20:32N 53°42' E 005°45'4 4.6
2016-Jan-29 19:33N 53°43' E 005°52'6 6.0
2016-Jan-29 18:33N 53°46' E 006°01'6 5.9
2016-Jan-29 17:33N 53°48' E 006°11'5 5.4
2016-Jan-29 16:33N 53°49' E 006°20'5 4.9
2016-Jan-29 15:33N 53°51' E 006°27'4 4.4
2016-Jan-29 14:33N 53°52' E 006°35'4 3.7
2016-Jan-29 13:33N 53°53' E 006°41'3 3.4
2016-Jan-29 12:34N 53°54' E 006°46'4 3.7
2016-Jan-29 11:34N 53°54' E 006°52'4 3.8
2016-Jan-29 10:33N 53°55' E 006°59'5 4.6
2016-Jan-29 09:33N 53°56' E 007°06'14 6.9
2016-Jan-29 07:32N 53°60' E 007°29'8 7.9
2016-Jan-29 06:33N 54°01' E 007°42'8 8.3
2016-Jan-29 05:34N 54°02' E 007°56'8 8.4
2016-Jan-29 04:33N 54°01' E 008°10'9 8.7
2016-Jan-29 03:33N 53°59' E 008°25'8 7.9
2016-Jan-29 02:33N 53°57' E 008°38'7 7.3
2016-Jan-29 01:33N 53°51' E 008°45'6 6.4
2016-Jan-29 00:33N 53°51' E 008°56'8 8.2
2016-Jan-28 23:33N 53°53' E 009°10'9 9.4
2016-Jan-28 22:33N 53°48' E 009°23'1511.5
2016-Jan-28 21:16N 53°35' E 009°36'811.9
2016-Jan-28 20:33N 53°33' E 009°50'5 4.8
2016-Jan-28 19:28N 53°30' E 009°58'0 0.0
2016-Jan-28 18:28N 53°30' E 009°58'0 0.0
2016-Jan-28 17:31N 53°30' E 009°58'0 0.0
2016-Jan-28 16:28N 53°30' E 009°58'0 0.0
2016-Jan-28 15:31N 53°30' E 009°58'0 0.0
2016-Jan-28 14:31N 53°30' E 009°58'0 0.0
2016-Jan-28 13:28N 53°30' E 009°58'0 0.0
2016-Jan-28 12:31N 53°30' E 009°58'0 0.0
2016-Jan-28 11:31N 53°30' E 009°58'0 0.0
2016-Jan-28 10:28N 53°30' E 009°58'0 0.4
2016-Jan-28 09:33N 53°30' E 009°57'7 7.3
2016-Jan-28 08:33N 53°34' E 009°46'16 8.0
2016-Jan-28 06:33N 53°44' E 009°26'9 9.2
2016-Jan-28 05:33N 53°52' E 009°17'5 5.0
2016-Jan-28 04:33N 53°53' E 009°09'0 0.0
2016-Jan-28 03:27N 53°53' E 009°09'0 0.0
2016-Jan-28 02:30N 53°53' E 009°09'0 0.0
2016-Jan-28 01:33N 53°53' E 009°09'0 0.0
2016-Jan-28 00:33N 53°53' E 009°09'0 0.0
2016-Jan-27 23:33N 53°53' E 009°09'0 0.1
2016-Jan-27 22:33N 53°53' E 009°09'  
Track history (hours):
 
Tides and Currents Weather Stations Pressure Air Temp Water Temp Dewpoint Dewpoint Depression Visibility Wind Speed Wind Dir Waves Ship Positions

Parma

Last reported at 2016-Feb-06 21:33 UTC. Time now 2016-Feb-10 02:39 UTC.
Position N 35°54' W 005°18'.

MMSI: 279073176.

Date/timePositionNaut miles runAvg speedWind from/ knotsBaromVisibWave heightAir tempDewpointWater temp
2016-Feb-06 21:33N 35°54' W 005°18'1 0.9
2016-Feb-06 20:33N 35°54' W 005°19'0 0.1
2016-Feb-06 19:33N 35°54' W 005°19'0 0.1
2016-Feb-06 18:33N 35°54' W 005°19'0 0.0
2016-Feb-06 17:33N 35°54' W 005°19'1 0.6
2016-Feb-06 16:33N 35°54' W 005°19'3 2.5
2016-Feb-06 15:33N 35°56' W 005°21'1110.5
2016-Feb-06 14:33N 35°55' W 005°34'121 9.8
2016-Feb-06 02:17N 36°18' W 008°01'7 8.9
2016-Feb-06 01:32N 36°20' W 008°09'10 9.6
2016-Feb-06 00:32N 36°22' W 008°20'10 9.5
2016-Feb-05 23:32N 36°24' W 008°32'10 9.7
2016-Feb-05 22:32N 36°27' W 008°43'9 9.0
2016-Feb-05 21:29N 36°29' W 008°55'8 8.9
2016-Feb-05 20:32N 36°31' W 009°05'10 9.6
2016-Feb-05 19:32N 36°34' W 009°16'9 9.0
2016-Feb-05 18:32N 36°40' W 009°24'9 8.5
2016-Feb-05 17:29N 36°47' W 009°32'8 8.5
2016-Feb-05 16:32N 36°54' W 009°35'52 8.7
2016-Feb-05 10:32N 37°46' W 009°49'1110.1
2016-Feb-05 09:28N 37°56' W 009°52'9 9.0
2016-Feb-05 08:31N 38°04' W 009°54'10 9.6
2016-Feb-05 07:28N 38°14' W 009°57'10 9.7
2016-Feb-05 06:25N 38°24' W 010°00'910.1
2016-Feb-05 05:31N 38°33' W 010°03'8 8.5
2016-Feb-05 04:33N 38°41' W 010°06'1010.0
2016-Feb-05 03:31N 38°51' W 010°06'9 9.1
2016-Feb-05 02:33N 39°00' W 010°06'10 9.5
2016-Feb-05 01:31N 39°10' W 010°06'9 9.2
2016-Feb-05 00:33N 39°19' W 010°06'1010.2
2016-Feb-04 23:33N 39°29' W 010°06'10 9.4
2016-Feb-04 22:31N 39°39' W 010°06'10 9.2
2016-Feb-04 21:28N 39°48' W 010°06'9 9.6
2016-Feb-04 20:31N 39°58' W 010°06'10 9.9
2016-Feb-04 19:31N 40°07' W 010°06'20 9.7
2016-Feb-04 17:28N 40°27' W 010°06'1010.0
2016-Feb-04 16:31N 40°37' W 010°06'1111.1
2016-Feb-04 15:31N 40°48' W 010°06'10 9.9
2016-Feb-04 14:28N 40°58' W 010°06'9 9.2
2016-Feb-04 13:31N 41°07' W 010°06'19 9.6
2016-Feb-04 11:31N 41°26' W 010°06'10 9.3
2016-Feb-04 10:28N 41°36' W 010°06'9 9.1
2016-Feb-04 09:31N 41°45' W 010°07'10 9.4
2016-Feb-04 08:28N 41°54' W 010°07'  
2016-Feb-01 11:12N 49°54' W 003°08'141 6.2
2016-Jan-31 12:25N 50°36' E 000°22'6 7.4
2016-Jan-31 11:33N 50°38' E 000°32'9 8.4
2016-Jan-31 10:32N 50°43' E 000°43'2210.0
2016-Jan-31 08:21N 50°56' E 001°11'8 9.6
2016-Jan-31 07:33N 51°01' E 001°20'9 8.8
2016-Jan-31 06:33N 51°06' E 001°31'8 7.8
2016-Jan-31 05:33N 51°11' E 001°41'7 7.3
2016-Jan-31 04:33N 51°17' E 001°48'8 7.9
2016-Jan-31 03:33N 51°23' E 001°56'9 8.6
2016-Jan-31 02:33N 51°30' E 002°04'9 9.1
2016-Jan-31 01:33N 51°37' E 002°13'9 9.3
2016-Jan-31 00:33N 51°44' E 002°23'144 6.6
2016-Jan-30 02:33N 53°33' E 004°60'5 5.5
2016-Jan-30 01:33N 53°35' E 005°08'5 5.5
2016-Jan-30 00:33N 53°36' E 005°17'5 5.1
2016-Jan-29 23:33N 53°38' E 005°25'5 5.2
2016-Jan-29 22:33N 53°40' E 005°33'4 4.1
2016-Jan-29 21:33N 53°41' E 005°40'3 3.0
2016-Jan-29 20:32N 53°42' E 005°45'4 4.6
2016-Jan-29 19:33N 53°43' E 005°52'6 6.0
2016-Jan-29 18:33N 53°46' E 006°01'6 5.9
2016-Jan-29 17:33N 53°48' E 006°11'5 5.4
2016-Jan-29 16:33N 53°49' E 006°20'5 4.9
2016-Jan-29 15:33N 53°51' E 006°27'4 4.4
2016-Jan-29 14:33N 53°52' E 006°35'4 3.7
2016-Jan-29 13:33N 53°53' E 006°41'3 3.4
2016-Jan-29 12:34N 53°54' E 006°46'4 3.7
2016-Jan-29 11:34N 53°54' E 006°52'4 3.8
2016-Jan-29 10:33N 53°55' E 006°59'5 4.6
2016-Jan-29 09:33N 53°56' E 007°06'14 6.9
2016-Jan-29 07:32N 53°60' E 007°29'8 7.9
2016-Jan-29 06:33N 54°01' E 007°42'8 8.3
2016-Jan-29 05:34N 54°02' E 007°56'8 8.4
2016-Jan-29 04:33N 54°01' E 008°10'9 8.7
2016-Jan-29 03:33N 53°59' E 008°25'8 7.9
2016-Jan-29 02:33N 53°57' E 008°38'7 7.3
2016-Jan-29 01:33N 53°51' E 008°45'6 6.4
2016-Jan-29 00:33N 53°51' E 008°56'8 8.2
2016-Jan-28 23:33N 53°53' E 009°10'9 9.4
2016-Jan-28 22:33N 53°48' E 009°23'1511.5
2016-Jan-28 21:16N 53°35' E 009°36'811.9
2016-Jan-28 20:33N 53°33' E 009°50'5 4.8
2016-Jan-28 19:28N 53°30' E 009°58'0 0.0
2016-Jan-28 18:28N 53°30' E 009°58'0 0.0
2016-Jan-28 17:31N 53°30' E 009°58'0 0.0
2016-Jan-28 16:28N 53°30' E 009°58'0 0.0
2016-Jan-28 15:31N 53°30' E 009°58'0 0.0
2016-Jan-28 14:31N 53°30' E 009°58'0 0.0
2016-Jan-28 13:28N 53°30' E 009°58'0 0.0
2016-Jan-28 12:31N 53°30' E 009°58'0 0.0
2016-Jan-28 11:31N 53°30' E 009°58'0 0.0
2016-Jan-28 10:28N 53°30' E 009°58'0 0.4
2016-Jan-28 09:33N 53°30' E 009°57'7 7.3
2016-Jan-28 08:33N 53°34' E 009°46'16 8.0
2016-Jan-28 06:33N 53°44' E 009°26'9 9.2
2016-Jan-28 05:33N 53°52' E 009°17'5 5.0
2016-Jan-28 04:33N 53°53' E 009°09'0 0.0
2016-Jan-28 03:27N 53°53' E 009°09'0 0.0
2016-Jan-28 02:30N 53°53' E 009°09'0 0.0
2016-Jan-28 01:33N 53°53' E 009°09'0 0.0
2016-Jan-28 00:33N 53°53' E 009°09'0 0.0
2016-Jan-27 23:33N 53°53' E 009°09'0 0.1
2016-Jan-27 22:33N 53°53' E 009°09'  

Dump ship's entire track history